sensor_id;sensor_type;location;lat;lon;timestamp;P1;durP1;ratioP1;P2;durP2;ratioP2
12689;SDS011;6409;56.294;14.480;2022-11-20T00:01:35;1.00;;;1.00;;
12689;SDS011;6409;56.294;14.480;2022-11-20T00:04:03;0.73;;;0.73;;
12689;SDS011;6409;56.294;14.480;2022-11-20T00:06:31;0.60;;;0.60;;
12689;SDS011;6409;56.294;14.480;2022-11-20T00:08:59;0.73;;;0.73;;
12689;SDS011;6409;56.294;14.480;2022-11-20T00:11:28;0.70;;;0.70;;
12689;SDS011;6409;56.294;14.480;2022-11-20T00:13:57;0.93;;;0.83;;
12689;SDS011;6409;56.294;14.480;2022-11-20T00:16:27;8.83;;;0.70;;
12689;SDS011;6409;56.294;14.480;2022-11-20T00:18:58;0.57;;;0.57;;
12689;SDS011;6409;56.294;14.480;2022-11-20T00:21:26;0.80;;;0.80;;
12689;SDS011;6409;56.294;14.480;2022-11-20T00:23:55;0.53;;;0.53;;
12689;SDS011;6409;56.294;14.480;2022-11-20T00:26:24;0.50;;;0.50;;
12689;SDS011;6409;56.294;14.480;2022-11-20T00:28:54;0.93;;;0.80;;
12689;SDS011;6409;56.294;14.480;2022-11-20T00:31:22;0.90;;;0.90;;
12689;SDS011;6409;56.294;14.480;2022-11-20T00:33:49;0.60;;;0.60;;
12689;SDS011;6409;56.294;14.480;2022-11-20T00:36:19;0.97;;;0.70;;
12689;SDS011;6409;56.294;14.480;2022-11-20T00:38:50;0.70;;;0.70;;
12689;SDS011;6409;56.294;14.480;2022-11-20T00:41:19;1.00;;;0.90;;
12689;SDS011;6409;56.294;14.480;2022-11-20T00:43:47;1.07;;;0.97;;
12689;SDS011;6409;56.294;14.480;2022-11-20T00:46:16;0.77;;;0.77;;
12689;SDS011;6409;56.294;14.480;2022-11-20T00:48:44;1.03;;;0.77;;
12689;SDS011;6409;56.294;14.480;2022-11-20T00:51:12;0.40;;;0.40;;
12689;SDS011;6409;56.294;14.480;2022-11-20T00:53:42;0.70;;;0.70;;
12689;SDS011;6409;56.294;14.480;2022-11-20T00:56:11;0.70;;;0.70;;
12689;SDS011;6409;56.294;14.480;2022-11-20T00:58:40;0.60;;;0.60;;
12689;SDS011;6409;56.294;14.480;2022-11-20T01:01:10;0.70;;;0.70;;
12689;SDS011;6409;56.294;14.480;2022-11-20T01:03:39;1.30;;;1.20;;
12689;SDS011;6409;56.294;14.480;2022-11-20T01:06:08;0.70;;;0.70;;
12689;SDS011;6409;56.294;14.480;2022-11-20T01:08:37;0.57;;;0.57;;
12689;SDS011;6409;56.294;14.480;2022-11-20T01:11:06;0.53;;;0.53;;
12689;SDS011;6409;56.294;14.480;2022-11-20T01:13:34;0.60;;;0.60;;
12689;SDS011;6409;56.294;14.480;2022-11-20T01:16:05;0.57;;;0.57;;
12689;SDS011;6409;56.294;14.480;2022-11-20T01:18:33;0.97;;;0.97;;
12689;SDS011;6409;56.294;14.480;2022-11-20T01:21:01;0.93;;;0.83;;
12689;SDS011;6409;56.294;14.480;2022-11-20T01:23:30;0.80;;;0.80;;
12689;SDS011;6409;56.294;14.480;2022-11-20T01:25:59;1.07;;;0.97;;
12689;SDS011;6409;56.294;14.480;2022-11-20T01:28:29;0.57;;;0.57;;
12689;SDS011;6409;56.294;14.480;2022-11-20T01:30:56;1.80;;;1.57;;
12689;SDS011;6409;56.294;14.480;2022-11-20T01:33:23;0.87;;;0.87;;
12689;SDS011;6409;56.294;14.480;2022-11-20T01:35:50;0.70;;;0.70;;
12689;SDS011;6409;56.294;14.480;2022-11-20T01:38:17;0.60;;;0.60;;
12689;SDS011;6409;56.294;14.480;2022-11-20T01:40:45;0.60;;;0.60;;
12689;SDS011;6409;56.294;14.480;2022-11-20T01:43:13;0.87;;;0.67;;
12689;SDS011;6409;56.294;14.480;2022-11-20T01:45:56;0.40;;;0.40;;
12689;SDS011;6409;56.294;14.480;2022-11-20T01:48:26;2.57;;;1.23;;
12689;SDS011;6409;56.294;14.480;2022-11-20T01:50:57;0.50;;;0.50;;
12689;SDS011;6409;56.294;14.480;2022-11-20T01:53:25;0.70;;;0.70;;
12689;SDS011;6409;56.294;14.480;2022-11-20T01:55:55;0.70;;;0.70;;
12689;SDS011;6409;56.294;14.480;2022-11-20T01:58:24;0.60;;;0.60;;
12689;SDS011;6409;56.294;14.480;2022-11-20T02:00:52;0.33;;;0.33;;
12689;SDS011;6409;56.294;14.480;2022-11-20T02:03:21;0.60;;;0.60;;
12689;SDS011;6409;56.294;14.480;2022-11-20T02:05:49;0.60;;;0.60;;
12689;SDS011;6409;56.294;14.480;2022-11-20T02:08:18;0.83;;;0.83;;
12689;SDS011;6409;56.294;14.480;2022-11-20T02:10:45;4.07;;;0.90;;
12689;SDS011;6409;56.294;14.480;2022-11-20T02:13:12;0.77;;;0.70;;
12689;SDS011;6409;56.294;14.480;2022-11-20T02:15:57;0.50;;;0.50;;
12689;SDS011;6409;56.294;14.480;2022-11-20T02:18:25;0.63;;;0.63;;
12689;SDS011;6409;56.294;14.480;2022-11-20T02:20:53;2.90;;;0.83;;
12689;SDS011;6409;56.294;14.480;2022-11-20T02:23:23;0.50;;;0.50;;
12689;SDS011;6409;56.294;14.480;2022-11-20T02:25:55;0.70;;;0.70;;
12689;SDS011;6409;56.294;14.480;2022-11-20T02:28:23;0.53;;;0.50;;
12689;SDS011;6409;56.294;14.480;2022-11-20T02:30:50;1.47;;;1.23;;
12689;SDS011;6409;56.294;14.480;2022-11-20T02:33:17;0.47;;;0.47;;
12689;SDS011;6409;56.294;14.480;2022-11-20T02:35:44;0.77;;;0.77;;
12689;SDS011;6409;56.294;14.480;2022-11-20T02:38:13;0.50;;;0.50;;
12689;SDS011;6409;56.294;14.480;2022-11-20T02:40:40;0.70;;;0.70;;
12689;SDS011;6409;56.294;14.480;2022-11-20T02:43:09;0.97;;;0.80;;
12689;SDS011;6409;56.294;14.480;2022-11-20T02:45:36;2.73;;;1.27;;
12689;SDS011;6409;56.294;14.480;2022-11-20T02:48:05;0.40;;;0.40;;
12689;SDS011;6409;56.294;14.480;2022-11-20T02:50:33;0.60;;;0.60;;
12689;SDS011;6409;56.294;14.480;2022-11-20T02:53:03;0.40;;;0.40;;
12689;SDS011;6409;56.294;14.480;2022-11-20T02:55:30;0.60;;;0.60;;
12689;SDS011;6409;56.294;14.480;2022-11-20T02:57:57;0.40;;;0.40;;
12689;SDS011;6409;56.294;14.480;2022-11-20T03:00:25;0.47;;;0.47;;
12689;SDS011;6409;56.294;14.480;2022-11-20T03:02:52;0.90;;;0.90;;
12689;SDS011;6409;56.294;14.480;2022-11-20T03:05:19;0.50;;;0.50;;
12689;SDS011;6409;56.294;14.480;2022-11-20T03:07:46;1.80;;;0.67;;
12689;SDS011;6409;56.294;14.480;2022-11-20T03:10:13;0.97;;;0.97;;
12689;SDS011;6409;56.294;14.480;2022-11-20T03:12:39;0.60;;;0.60;;
12689;SDS011;6409;56.294;14.480;2022-11-20T03:15:07;0.80;;;0.80;;
12689;SDS011;6409;56.294;14.480;2022-11-20T03:17:36;0.70;;;0.70;;
12689;SDS011;6409;56.294;14.480;2022-11-20T03:20:04;0.60;;;0.60;;
12689;SDS011;6409;56.294;14.480;2022-11-20T03:22:32;0.80;;;0.80;;
12689;SDS011;6409;56.294;14.480;2022-11-20T03:24:59;0.40;;;0.40;;
12689;SDS011;6409;56.294;14.480;2022-11-20T03:27:25;0.70;;;0.70;;
12689;SDS011;6409;56.294;14.480;2022-11-20T03:29:52;0.63;;;0.50;;
12689;SDS011;6409;56.294;14.480;2022-11-20T03:32:19;0.73;;;0.60;;
12689;SDS011;6409;56.294;14.480;2022-11-20T03:34:48;0.70;;;0.70;;
12689;SDS011;6409;56.294;14.480;2022-11-20T03:37:15;1.57;;;0.83;;
12689;SDS011;6409;56.294;14.480;2022-11-20T03:39:42;0.70;;;0.70;;
12689;SDS011;6409;56.294;14.480;2022-11-20T03:42:08;0.87;;;0.87;;
12689;SDS011;6409;56.294;14.480;2022-11-20T03:44:56;0.97;;;0.73;;
12689;SDS011;6409;56.294;14.480;2022-11-20T03:47:23;0.53;;;0.53;;
12689;SDS011;6409;56.294;14.480;2022-11-20T03:49:52;2.30;;;0.83;;
12689;SDS011;6409;56.294;14.480;2022-11-20T03:52:19;0.60;;;0.60;;
12689;SDS011;6409;56.294;14.480;2022-11-20T03:54:46;0.53;;;0.53;;
12689;SDS011;6409;56.294;14.480;2022-11-20T03:57:12;0.63;;;0.63;;
12689;SDS011;6409;56.294;14.480;2022-11-20T03:59:39;0.50;;;0.50;;
12689;SDS011;6409;56.294;14.480;2022-11-20T04:02:06;0.80;;;0.80;;
12689;SDS011;6409;56.294;14.480;2022-11-20T04:04:33;0.40;;;0.40;;
12689;SDS011;6409;56.294;14.480;2022-11-20T04:07:01;0.50;;;0.50;;
12689;SDS011;6409;56.294;14.480;2022-11-20T04:09:28;0.63;;;0.63;;
12689;SDS011;6409;56.294;14.480;2022-11-20T04:11:55;0.67;;;0.67;;
12689;SDS011;6409;56.294;14.480;2022-11-20T04:14:22;0.43;;;0.43;;
12689;SDS011;6409;56.294;14.480;2022-11-20T04:16:49;0.40;;;0.40;;
12689;SDS011;6409;56.294;14.480;2022-11-20T04:19:16;1.90;;;0.60;;
12689;SDS011;6409;56.294;14.480;2022-11-20T04:21:43;0.60;;;0.60;;
12689;SDS011;6409;56.294;14.480;2022-11-20T04:24:12;1.47;;;1.23;;
12689;SDS011;6409;56.294;14.480;2022-11-20T04:26:39;0.57;;;0.57;;
12689;SDS011;6409;56.294;14.480;2022-11-20T04:29:06;0.87;;;0.73;;
12689;SDS011;6409;56.294;14.480;2022-11-20T04:31:36;0.80;;;0.80;;
12689;SDS011;6409;56.294;14.480;2022-11-20T04:34:03;0.87;;;0.87;;
12689;SDS011;6409;56.294;14.480;2022-11-20T04:36:32;0.67;;;0.67;;
12689;SDS011;6409;56.294;14.480;2022-11-20T04:39:00;0.47;;;0.47;;
12689;SDS011;6409;56.294;14.480;2022-11-20T04:41:30;1.33;;;0.80;;
12689;SDS011;6409;56.294;14.480;2022-11-20T04:43:59;0.60;;;0.60;;
12689;SDS011;6409;56.294;14.480;2022-11-20T04:46:28;0.60;;;0.60;;
12689;SDS011;6409;56.294;14.480;2022-11-20T04:48:56;0.80;;;0.80;;
12689;SDS011;6409;56.294;14.480;2022-11-20T04:51:23;0.60;;;0.60;;
12689;SDS011;6409;56.294;14.480;2022-11-20T04:53:51;1.23;;;0.70;;
12689;SDS011;6409;56.294;14.480;2022-11-20T04:56:18;0.50;;;0.50;;
12689;SDS011;6409;56.294;14.480;2022-11-20T04:58:46;2.77;;;1.00;;
12689;SDS011;6409;56.294;14.480;2022-11-20T05:01:14;0.83;;;0.83;;
12689;SDS011;6409;56.294;14.480;2022-11-20T05:03:42;0.93;;;0.90;;
12689;SDS011;6409;56.294;14.480;2022-11-20T05:06:10;0.50;;;0.50;;
12689;SDS011;6409;56.294;14.480;2022-11-20T05:08:39;0.90;;;0.80;;
12689;SDS011;6409;56.294;14.480;2022-11-20T05:11:07;0.60;;;0.60;;
12689;SDS011;6409;56.294;14.480;2022-11-20T05:13:36;0.60;;;0.60;;
12689;SDS011;6409;56.294;14.480;2022-11-20T05:16:05;0.53;;;0.53;;
12689;SDS011;6409;56.294;14.480;2022-11-20T05:18:33;1.80;;;0.87;;
12689;SDS011;6409;56.294;14.480;2022-11-20T05:21:00;0.97;;;0.90;;
12689;SDS011;6409;56.294;14.480;2022-11-20T05:23:27;1.63;;;1.23;;
12689;SDS011;6409;56.294;14.480;2022-11-20T05:25:57;0.70;;;0.70;;
12689;SDS011;6409;56.294;14.480;2022-11-20T05:28:24;0.50;;;0.50;;
12689;SDS011;6409;56.294;14.480;2022-11-20T05:30:52;0.80;;;0.80;;
12689;SDS011;6409;56.294;14.480;2022-11-20T05:33:20;0.80;;;0.80;;
12689;SDS011;6409;56.294;14.480;2022-11-20T05:35:48;0.43;;;0.43;;
12689;SDS011;6409;56.294;14.480;2022-11-20T05:38:14;0.80;;;0.80;;
12689;SDS011;6409;56.294;14.480;2022-11-20T05:40:42;0.53;;;0.53;;
12689;SDS011;6409;56.294;14.480;2022-11-20T05:43:09;0.40;;;0.40;;
12689;SDS011;6409;56.294;14.480;2022-11-20T05:45:36;0.53;;;0.53;;
12689;SDS011;6409;56.294;14.480;2022-11-20T05:48:02;0.70;;;0.70;;
12689;SDS011;6409;56.294;14.480;2022-11-20T05:50:31;0.80;;;0.80;;
12689;SDS011;6409;56.294;14.480;2022-11-20T05:52:58;0.73;;;0.73;;
12689;SDS011;6409;56.294;14.480;2022-11-20T05:55:25;0.40;;;0.40;;
12689;SDS011;6409;56.294;14.480;2022-11-20T05:57:53;0.40;;;0.40;;
12689;SDS011;6409;56.294;14.480;2022-11-20T06:00:20;1.23;;;1.03;;
12689;SDS011;6409;56.294;14.480;2022-11-20T06:02:47;0.67;;;0.67;;
12689;SDS011;6409;56.294;14.480;2022-11-20T06:05:14;0.87;;;0.87;;
12689;SDS011;6409;56.294;14.480;2022-11-20T06:07:42;0.70;;;0.70;;
12689;SDS011;6409;56.294;14.480;2022-11-20T06:10:09;2.20;;;1.10;;
12689;SDS011;6409;56.294;14.480;2022-11-20T06:12:36;0.50;;;0.50;;
12689;SDS011;6409;56.294;14.480;2022-11-20T06:15:04;0.70;;;0.70;;
12689;SDS011;6409;56.294;14.480;2022-11-20T06:17:31;0.60;;;0.60;;
12689;SDS011;6409;56.294;14.480;2022-11-20T06:19:58;1.23;;;0.80;;
12689;SDS011;6409;56.294;14.480;2022-11-20T06:22:25;0.43;;;0.43;;
12689;SDS011;6409;56.294;14.480;2022-11-20T06:24:54;0.63;;;0.63;;
12689;SDS011;6409;56.294;14.480;2022-11-20T06:27:21;0.70;;;0.70;;
12689;SDS011;6409;56.294;14.480;2022-11-20T06:29:48;0.73;;;0.73;;
12689;SDS011;6409;56.294;14.480;2022-11-20T06:32:14;1.03;;;0.93;;
12689;SDS011;6409;56.294;14.480;2022-11-20T06:34:41;0.50;;;0.50;;
12689;SDS011;6409;56.294;14.480;2022-11-20T06:37:08;0.60;;;0.60;;
12689;SDS011;6409;56.294;14.480;2022-11-20T06:39:35;1.13;;;1.03;;
12689;SDS011;6409;56.294;14.480;2022-11-20T06:42:03;0.93;;;0.60;;
12689;SDS011;6409;56.294;14.480;2022-11-20T06:44:30;0.90;;;0.67;;
12689;SDS011;6409;56.294;14.480;2022-11-20T06:46:57;0.83;;;0.63;;
12689;SDS011;6409;56.294;14.480;2022-11-20T06:49:24;1.17;;;1.00;;
12689;SDS011;6409;56.294;14.480;2022-11-20T06:51:52;0.63;;;0.63;;
12689;SDS011;6409;56.294;14.480;2022-11-20T06:54:19;0.80;;;0.70;;
12689;SDS011;6409;56.294;14.480;2022-11-20T06:56:46;0.90;;;0.90;;
12689;SDS011;6409;56.294;14.480;2022-11-20T06:59:15;0.73;;;0.67;;
12689;SDS011;6409;56.294;14.480;2022-11-20T07:01:42;0.60;;;0.60;;
12689;SDS011;6409;56.294;14.480;2022-11-20T07:04:09;2.00;;;1.00;;
12689;SDS011;6409;56.294;14.480;2022-11-20T07:06:36;0.63;;;0.63;;
12689;SDS011;6409;56.294;14.480;2022-11-20T07:09:02;0.80;;;0.70;;
12689;SDS011;6409;56.294;14.480;2022-11-20T07:11:29;2.20;;;1.13;;
12689;SDS011;6409;56.294;14.480;2022-11-20T07:13:56;0.50;;;0.50;;
12689;SDS011;6409;56.294;14.480;2022-11-20T07:16:25;0.90;;;0.83;;
12689;SDS011;6409;56.294;14.480;2022-11-20T07:18:52;0.50;;;0.50;;
12689;SDS011;6409;56.294;14.480;2022-11-20T07:21:19;1.17;;;1.07;;
12689;SDS011;6409;56.294;14.480;2022-11-20T07:23:46;0.80;;;0.80;;
12689;SDS011;6409;56.294;14.480;2022-11-20T07:26:12;0.93;;;0.93;;
12689;SDS011;6409;56.294;14.480;2022-11-20T07:28:39;0.97;;;0.87;;
12689;SDS011;6409;56.294;14.480;2022-11-20T07:31:06;0.50;;;0.50;;
12689;SDS011;6409;56.294;14.480;2022-11-20T07:33:34;1.00;;;1.00;;
12689;SDS011;6409;56.294;14.480;2022-11-20T07:36:01;0.83;;;0.83;;
12689;SDS011;6409;56.294;14.480;2022-11-20T07:38:29;0.90;;;0.90;;
12689;SDS011;6409;56.294;14.480;2022-11-20T07:40:56;0.80;;;0.80;;
12689;SDS011;6409;56.294;14.480;2022-11-20T07:43:26;1.10;;;1.00;;
12689;SDS011;6409;56.294;14.480;2022-11-20T07:45:54;1.07;;;0.97;;
12689;SDS011;6409;56.294;14.480;2022-11-20T07:48:22;0.60;;;0.60;;
12689;SDS011;6409;56.294;14.480;2022-11-20T07:50:52;0.80;;;0.80;;
12689;SDS011;6409;56.294;14.480;2022-11-20T07:53:19;2.87;;;1.57;;
12689;SDS011;6409;56.294;14.480;2022-11-20T07:55:47;0.90;;;0.90;;
12689;SDS011;6409;56.294;14.480;2022-11-20T07:58:14;0.80;;;0.80;;
12689;SDS011;6409;56.294;14.480;2022-11-20T08:00:41;0.60;;;0.60;;
12689;SDS011;6409;56.294;14.480;2022-11-20T08:03:08;0.80;;;0.80;;
12689;SDS011;6409;56.294;14.480;2022-11-20T08:05:35;0.63;;;0.63;;
12689;SDS011;6409;56.294;14.480;2022-11-20T08:08:03;0.73;;;0.67;;
12689;SDS011;6409;56.294;14.480;2022-11-20T08:10:31;0.70;;;0.70;;
12689;SDS011;6409;56.294;14.480;2022-11-20T08:12:58;0.50;;;0.50;;
12689;SDS011;6409;56.294;14.480;2022-11-20T08:15:47;0.70;;;0.70;;
12689;SDS011;6409;56.294;14.480;2022-11-20T08:18:14;0.63;;;0.63;;
12689;SDS011;6409;56.294;14.480;2022-11-20T08:20:42;0.70;;;0.70;;
12689;SDS011;6409;56.294;14.480;2022-11-20T08:23:10;1.00;;;0.80;;
12689;SDS011;6409;56.294;14.480;2022-11-20T08:25:38;0.80;;;0.80;;
12689;SDS011;6409;56.294;14.480;2022-11-20T08:28:05;1.17;;;1.10;;
12689;SDS011;6409;56.294;14.480;2022-11-20T08:30:34;1.03;;;0.97;;
12689;SDS011;6409;56.294;14.480;2022-11-20T08:33:01;0.60;;;0.60;;
12689;SDS011;6409;56.294;14.480;2022-11-20T08:35:32;0.60;;;0.60;;
12689;SDS011;6409;56.294;14.480;2022-11-20T08:37:59;0.87;;;0.83;;
12689;SDS011;6409;56.294;14.480;2022-11-20T08:40:27;0.83;;;0.83;;
12689;SDS011;6409;56.294;14.480;2022-11-20T08:42:55;0.90;;;0.90;;
12689;SDS011;6409;56.294;14.480;2022-11-20T08:45:21;1.70;;;1.03;;
12689;SDS011;6409;56.294;14.480;2022-11-20T08:47:48;1.30;;;1.20;;
12689;SDS011;6409;56.294;14.480;2022-11-20T08:50:16;0.83;;;0.83;;
12689;SDS011;6409;56.294;14.480;2022-11-20T08:52:43;0.73;;;0.73;;
12689;SDS011;6409;56.294;14.480;2022-11-20T08:55:10;0.70;;;0.70;;
12689;SDS011;6409;56.294;14.480;2022-11-20T08:57:39;0.80;;;0.80;;
12689;SDS011;6409;56.294;14.480;2022-11-20T09:00:06;0.90;;;0.90;;
12689;SDS011;6409;56.294;14.480;2022-11-20T09:02:34;1.17;;;0.80;;
12689;SDS011;6409;56.294;14.480;2022-11-20T09:05:01;0.60;;;0.60;;
12689;SDS011;6409;56.294;14.480;2022-11-20T09:07:28;0.83;;;0.83;;
12689;SDS011;6409;56.294;14.480;2022-11-20T09:09:56;1.00;;;0.87;;
12689;SDS011;6409;56.294;14.480;2022-11-20T09:12:23;0.80;;;0.63;;
12689;SDS011;6409;56.294;14.480;2022-11-20T09:14:51;0.90;;;0.90;;
12689;SDS011;6409;56.294;14.480;2022-11-20T09:17:18;0.73;;;0.73;;
12689;SDS011;6409;56.294;14.480;2022-11-20T09:19:45;0.70;;;0.70;;
12689;SDS011;6409;56.294;14.480;2022-11-20T09:22:12;0.77;;;0.77;;
12689;SDS011;6409;56.294;14.480;2022-11-20T09:24:39;0.87;;;0.87;;
12689;SDS011;6409;56.294;14.480;2022-11-20T09:27:07;1.00;;;1.00;;
12689;SDS011;6409;56.294;14.480;2022-11-20T09:29:34;0.77;;;0.77;;
12689;SDS011;6409;56.294;14.480;2022-11-20T09:32:03;1.00;;;0.80;;
12689;SDS011;6409;56.294;14.480;2022-11-20T09:34:30;0.80;;;0.80;;
12689;SDS011;6409;56.294;14.480;2022-11-20T09:36:57;0.80;;;0.80;;
12689;SDS011;6409;56.294;14.480;2022-11-20T09:39:24;0.80;;;0.80;;
12689;SDS011;6409;56.294;14.480;2022-11-20T09:42:03;1.17;;;1.10;;
12689;SDS011;6409;56.294;14.480;2022-11-20T09:44:40;1.10;;;1.10;;
12689;SDS011;6409;56.294;14.480;2022-11-20T09:47:19;0.83;;;0.83;;
12689;SDS011;6409;56.294;14.480;2022-11-20T09:49:57;0.80;;;0.80;;
12689;SDS011;6409;56.294;14.480;2022-11-20T09:52:37;0.80;;;0.80;;
12689;SDS011;6409;56.294;14.480;2022-11-20T09:55:11;0.90;;;0.90;;
12689;SDS011;6409;56.294;14.480;2022-11-20T09:57:40;1.13;;;1.10;;
12689;SDS011;6409;56.294;14.480;2022-11-20T10:00:10;0.90;;;0.90;;
12689;SDS011;6409;56.294;14.480;2022-11-20T10:02:41;1.00;;;1.00;;
12689;SDS011;6409;56.294;14.480;2022-11-20T10:05:10;1.20;;;1.20;;
12689;SDS011;6409;56.294;14.480;2022-11-20T10:07:40;1.33;;;1.10;;
12689;SDS011;6409;56.294;14.480;2022-11-20T10:10:13;1.40;;;1.30;;
12689;SDS011;6409;56.294;14.480;2022-11-20T10:12:46;1.17;;;1.17;;
12689;SDS011;6409;56.294;14.480;2022-11-20T10:15:27;1.00;;;1.00;;
12689;SDS011;6409;56.294;14.480;2022-11-20T10:18:02;1.40;;;1.30;;
12689;SDS011;6409;56.294;14.480;2022-11-20T10:20:38;1.40;;;1.30;;
12689;SDS011;6409;56.294;14.480;2022-11-20T10:23:21;1.20;;;1.20;;
12689;SDS011;6409;56.294;14.480;2022-11-20T10:26:00;1.13;;;1.13;;
12689;SDS011;6409;56.294;14.480;2022-11-20T10:28:31;1.30;;;1.30;;
12689;SDS011;6409;56.294;14.480;2022-11-20T10:31:08;1.60;;;1.50;;
12689;SDS011;6409;56.294;14.480;2022-11-20T10:33:40;1.60;;;1.50;;
12689;SDS011;6409;56.294;14.480;2022-11-20T10:36:12;1.30;;;1.30;;
12689;SDS011;6409;56.294;14.480;2022-11-20T10:38:42;1.20;;;1.20;;
12689;SDS011;6409;56.294;14.480;2022-11-20T10:41:12;1.50;;;1.40;;
12689;SDS011;6409;56.294;14.480;2022-11-20T10:43:53;1.40;;;1.33;;
12689;SDS011;6409;56.294;14.480;2022-11-20T10:46:25;1.60;;;1.50;;
12689;SDS011;6409;56.294;14.480;2022-11-20T10:49:04;1.30;;;1.30;;
12689;SDS011;6409;56.294;14.480;2022-11-20T10:51:37;1.63;;;1.53;;
12689;SDS011;6409;56.294;14.480;2022-11-20T10:54:10;1.80;;;1.70;;
12689;SDS011;6409;56.294;14.480;2022-11-20T10:56:43;1.70;;;1.60;;
12689;SDS011;6409;56.294;14.480;2022-11-20T11:02:12;1.30;;;1.30;;
12689;SDS011;6409;56.294;14.480;2022-11-20T11:04:44;1.50;;;1.40;;
12689;SDS011;6409;56.294;14.480;2022-11-20T11:07:15;1.40;;;1.30;;
12689;SDS011;6409;56.294;14.480;2022-11-20T11:09:46;1.47;;;1.37;;
12689;SDS011;6409;56.294;14.480;2022-11-20T11:12:14;1.30;;;1.30;;
12689;SDS011;6409;56.294;14.480;2022-11-20T11:14:42;1.50;;;1.50;;
12689;SDS011;6409;56.294;14.480;2022-11-20T11:17:23;1.40;;;1.40;;
12689;SDS011;6409;56.294;14.480;2022-11-20T11:20:01;2.40;;;2.20;;
12689;SDS011;6409;56.294;14.480;2022-11-20T11:22:31;1.20;;;1.20;;
12689;SDS011;6409;56.294;14.480;2022-11-20T11:24:58;1.33;;;1.30;;
12689;SDS011;6409;56.294;14.480;2022-11-20T11:27:26;1.33;;;1.33;;
12689;SDS011;6409;56.294;14.480;2022-11-20T11:30:01;1.63;;;1.53;;
12689;SDS011;6409;56.294;14.480;2022-11-20T11:32:29;1.50;;;1.40;;
12689;SDS011;6409;56.294;14.480;2022-11-20T11:35:01;1.50;;;1.50;;
12689;SDS011;6409;56.294;14.480;2022-11-20T11:37:32;1.30;;;1.30;;
12689;SDS011;6409;56.294;14.480;2022-11-20T11:40:01;1.80;;;1.70;;
12689;SDS011;6409;56.294;14.480;2022-11-20T11:42:28;1.50;;;1.40;;
12689;SDS011;6409;56.294;14.480;2022-11-20T11:44:56;1.30;;;1.30;;
12689;SDS011;6409;56.294;14.480;2022-11-20T11:47:31;1.60;;;1.50;;
12689;SDS011;6409;56.294;14.480;2022-11-20T11:50:07;1.30;;;1.30;;
12689;SDS011;6409;56.294;14.480;2022-11-20T11:52:42;1.67;;;1.60;;
12689;SDS011;6409;56.294;14.480;2022-11-20T11:55:13;1.70;;;1.60;;
12689;SDS011;6409;56.294;14.480;2022-11-20T11:57:43;1.67;;;1.57;;
12689;SDS011;6409;56.294;14.480;2022-11-20T12:00:14;1.50;;;1.40;;
12689;SDS011;6409;56.294;14.480;2022-11-20T12:02:46;1.47;;;1.40;;
12689;SDS011;6409;56.294;14.480;2022-11-20T12:05:23;1.60;;;1.50;;
12689;SDS011;6409;56.294;14.480;2022-11-20T12:07:52;1.40;;;1.37;;
12689;SDS011;6409;56.294;14.480;2022-11-20T12:10:21;1.40;;;1.30;;
12689;SDS011;6409;56.294;14.480;2022-11-20T12:12:50;1.43;;;1.40;;
12689;SDS011;6409;56.294;14.480;2022-11-20T12:15:23;1.30;;;1.30;;
12689;SDS011;6409;56.294;14.480;2022-11-20T12:17:52;1.00;;;1.00;;
12689;SDS011;6409;56.294;14.480;2022-11-20T12:20:19;1.60;;;1.50;;
12689;SDS011;6409;56.294;14.480;2022-11-20T12:22:52;1.17;;;1.17;;
12689;SDS011;6409;56.294;14.480;2022-11-20T12:25:22;1.30;;;1.30;;
12689;SDS011;6409;56.294;14.480;2022-11-20T12:28:10;1.40;;;1.30;;
12689;SDS011;6409;56.294;14.480;2022-11-20T12:30:48;1.20;;;1.20;;
12689;SDS011;6409;56.294;14.480;2022-11-20T12:33:31;1.20;;;1.20;;
12689;SDS011;6409;56.294;14.480;2022-11-20T12:36:19;1.07;;;1.00;;
12689;SDS011;6409;56.294;14.480;2022-11-20T12:39:03;1.70;;;1.60;;
12689;SDS011;6409;56.294;14.480;2022-11-20T12:41:43;1.67;;;1.20;;
12689;SDS011;6409;56.294;14.480;2022-11-20T12:45:07;1.13;;;1.13;;
12689;SDS011;6409;56.294;14.480;2022-11-20T12:48:02;1.00;;;1.00;;
12689;SDS011;6409;56.294;14.480;2022-11-20T12:50:44;1.00;;;1.00;;
12689;SDS011;6409;56.294;14.480;2022-11-20T12:53:23;0.90;;;0.90;;
12689;SDS011;6409;56.294;14.480;2022-11-20T12:55:56;1.20;;;1.20;;
12689;SDS011;6409;56.294;14.480;2022-11-20T12:58:33;1.10;;;1.10;;
12689;SDS011;6409;56.294;14.480;2022-11-20T13:01:20;1.53;;;1.10;;
12689;SDS011;6409;56.294;14.480;2022-11-20T13:04:15;1.10;;;1.10;;
12689;SDS011;6409;56.294;14.480;2022-11-20T13:06:49;1.20;;;1.20;;
12689;SDS011;6409;56.294;14.480;2022-11-20T13:09:19;1.30;;;1.20;;
12689;SDS011;6409;56.294;14.480;2022-11-20T13:11:49;1.30;;;1.20;;
12689;SDS011;6409;56.294;14.480;2022-11-20T13:14:24;1.43;;;1.37;;
12689;SDS011;6409;56.294;14.480;2022-11-20T13:16:58;1.27;;;1.13;;
12689;SDS011;6409;56.294;14.480;2022-11-20T13:19:27;1.30;;;1.30;;
12689;SDS011;6409;56.294;14.480;2022-11-20T13:21:55;1.30;;;1.20;;
12689;SDS011;6409;56.294;14.480;2022-11-20T13:24:25;1.10;;;1.10;;
12689;SDS011;6409;56.294;14.480;2022-11-20T13:27:00;1.00;;;1.00;;
12689;SDS011;6409;56.294;14.480;2022-11-20T13:29:29;1.00;;;1.00;;
12689;SDS011;6409;56.294;14.480;2022-11-20T13:32:04;1.00;;;1.00;;
12689;SDS011;6409;56.294;14.480;2022-11-20T13:34:33;1.00;;;1.00;;
12689;SDS011;6409;56.294;14.480;2022-11-20T13:37:02;1.00;;;1.00;;
12689;SDS011;6409;56.294;14.480;2022-11-20T13:39:32;1.20;;;1.20;;
12689;SDS011;6409;56.294;14.480;2022-11-20T13:42:01;1.40;;;1.30;;
12689;SDS011;6409;56.294;14.480;2022-11-20T13:44:33;1.00;;;1.00;;
12689;SDS011;6409;56.294;14.480;2022-11-20T13:47:16;1.37;;;1.27;;
12689;SDS011;6409;56.294;14.480;2022-11-20T13:49:48;1.30;;;1.20;;
12689;SDS011;6409;56.294;14.480;2022-11-20T13:52:26;1.30;;;1.20;;
12689;SDS011;6409;56.294;14.480;2022-11-20T13:55:05;1.03;;;0.90;;
12689;SDS011;6409;56.294;14.480;2022-11-20T13:57:51;1.00;;;1.00;;
12689;SDS011;6409;56.294;14.480;2022-11-20T14:00:24;1.20;;;1.10;;
12689;SDS011;6409;56.294;14.480;2022-11-20T14:02:58;1.40;;;1.30;;
12689;SDS011;6409;56.294;14.480;2022-11-20T14:05:29;1.10;;;1.10;;
12689;SDS011;6409;56.294;14.480;2022-11-20T14:07:59;0.90;;;0.90;;
12689;SDS011;6409;56.294;14.480;2022-11-20T14:10:28;1.10;;;1.10;;
12689;SDS011;6409;56.294;14.480;2022-11-20T14:12:56;1.50;;;1.40;;
12689;SDS011;6409;56.294;14.480;2022-11-20T14:15:26;1.00;;;1.00;;
12689;SDS011;6409;56.294;14.480;2022-11-20T14:17:55;0.83;;;0.83;;
12689;SDS011;6409;56.294;14.480;2022-11-20T14:20:23;0.90;;;0.90;;
12689;SDS011;6409;56.294;14.480;2022-11-20T14:22:53;0.90;;;0.90;;
12689;SDS011;6409;56.294;14.480;2022-11-20T14:25:22;0.83;;;0.83;;
12689;SDS011;6409;56.294;14.480;2022-11-20T14:27:54;1.30;;;1.20;;
12689;SDS011;6409;56.294;14.480;2022-11-20T14:30:24;0.97;;;0.93;;
12689;SDS011;6409;56.294;14.480;2022-11-20T14:32:56;1.20;;;1.20;;
12689;SDS011;6409;56.294;14.480;2022-11-20T14:35:27;0.93;;;0.93;;
12689;SDS011;6409;56.294;14.480;2022-11-20T14:37:56;1.07;;;1.07;;
12689;SDS011;6409;56.294;14.480;2022-11-20T14:40:27;0.90;;;0.90;;
12689;SDS011;6409;56.294;14.480;2022-11-20T14:42:58;1.10;;;1.03;;
12689;SDS011;6409;56.294;14.480;2022-11-20T14:45:26;0.73;;;0.73;;
12689;SDS011;6409;56.294;14.480;2022-11-20T14:47:55;1.10;;;1.10;;
12689;SDS011;6409;56.294;14.480;2022-11-20T14:50:24;0.70;;;0.70;;
12689;SDS011;6409;56.294;14.480;2022-11-20T14:52:53;0.90;;;0.90;;
12689;SDS011;6409;56.294;14.480;2022-11-20T14:55:26;1.00;;;1.00;;
12689;SDS011;6409;56.294;14.480;2022-11-20T14:57:55;0.90;;;0.90;;
12689;SDS011;6409;56.294;14.480;2022-11-20T15:00:26;0.80;;;0.80;;
12689;SDS011;6409;56.294;14.480;2022-11-20T15:02:54;3.30;;;0.80;;
12689;SDS011;6409;56.294;14.480;2022-11-20T15:05:23;1.73;;;1.00;;
12689;SDS011;6409;56.294;14.480;2022-11-20T15:08:04;0.73;;;0.73;;